Time;durP1;ratioP1;P1;durP2;ratioP2;P2;SDS_P1;SDS_P2;PMS_P1;PMS_P2;Temp;Humidity;BMP_temperature;BMP_pressure;BME280_temperature;BME280_humidity;BME280_pressure;Samples;Min_cycle;Max_cycle;Signal;HPM_P1;HPM_P2
2021/04/18 00:02:14;;;;;;;2.83;1.98;;;;;;;22.38;38.40;94505.41;5010822;28;20517;-71
2021/04/18 00:04:40;;;;;;;3.25;2.10;;;;;;;22.40;38.46;94518.47;5028682;28;20140;-71
2021/04/18 00:07:05;;;;;;;2.45;2.03;;;;;;;22.27;38.40;94494.66;5028546;28;20029;-71
2021/04/18 00:09:31;;;;;;;2.60;1.83;;;;;;;22.36;38.38;94513.34;5028589;28;20040;-71
2021/04/18 00:11:57;;;;;;;2.95;2.13;;;;;;;22.17;38.34;94485.34;5028149;28;20036;-71
2021/04/18 00:14:24;;;;;;;3.00;2.10;;;;;;;22.36;38.58;94507.91;5028380;28;20051;-71
2021/04/18 00:16:50;;;;;;;3.00;2.10;;;;;;;22.26;38.49;94495.91;5007426;28;20026;-71
2021/04/18 00:19:15;;;;;;;2.65;2.05;;;;;;;22.32;38.64;94507.44;4972203;28;20026;-71
2021/04/18 00:21:41;;;;;;;2.90;2.00;;;;;;;22.12;38.60;94466.38;4989811;28;20500;-71
2021/04/18 00:24:06;;;;;;;3.13;2.20;;;;;;;22.28;38.63;94489.94;4974915;28;20036;-71
2021/04/18 00:26:32;;;;;;;3.38;2.22;;;;;;;22.29;38.49;94497.59;5009181;28;20040;-71
2021/04/18 00:28:57;;;;;;;3.22;1.83;;;;;;;22.27;38.53;94494.66;4991819;28;20029;-70
2021/04/18 00:31:23;;;;;;;3.90;2.28;;;;;;;22.21;38.56;94480.41;5009480;28;20419;-71
2021/04/18 00:33:48;;;;;;;3.83;2.40;;;;;;;22.26;38.56;94490.47;5009196;28;20033;-70
2021/04/18 00:36:14;;;;;;;2.90;2.10;;;;;;;22.24;38.70;94495.69;5008994;28;20068;-71
2021/04/18 00:38:39;;;;;;;3.38;2.00;;;;;;;22.13;38.40;94479.47;5009408;28;20022;-71
2021/04/18 00:41:04;;;;;;;3.70;2.20;;;;;;;22.23;38.69;94494.22;4991816;28;20022;-71
2021/04/18 00:43:30;;;;;;;2.63;1.95;;;;;;;22.24;38.70;94494.94;5009012;28;20029;-70
2021/04/18 00:45:55;;;;;;;3.40;2.00;;;;;;;22.23;38.61;94494.22;5008867;28;20415;-70
2021/04/18 00:48:21;;;;;;;2.90;1.90;;;;;;;22.04;38.72;94468.22;5009037;28;20396;-70
2021/04/18 00:50:46;;;;;;;3.20;2.03;;;;;;;22.17;38.54;94482.63;4975282;28;20029;-71
2021/04/18 00:53:11;;;;;;;2.30;1.80;;;;;;;22.19;38.78;94488.28;4975245;28;20025;-70
2021/04/18 00:55:39;;;;;;;2.53;1.80;;;;;;;22.18;38.61;94489.56;5008545;28;20032;-70
2021/04/18 00:58:07;;;;;;;2.88;2.00;;;;;;;22.17;38.74;94490.78;5008978;28;20062;-70
2021/04/18 01:00:33;;;;;;;2.78;1.98;;;;;;;22.18;38.62;94496.97;4991267;28;20509;-70
2021/04/18 01:02:59;;;;;;;3.70;2.13;;;;;;;22.16;38.72;94499.47;5008903;28;20021;-70
2021/04/18 01:05:24;;;;;;;2.70;1.70;;;;;;;21.97;38.55;94477.72;5004860;28;20542;-71
2021/04/18 01:07:50;;;;;;;3.22;2.15;;;;;;;22.15;38.67;94498.75;4971774;28;20039;-70
2021/04/18 01:10:16;;;;;;;3.05;2.08;;;;;;;22.15;38.68;94508.88;4955586;28;20029;-71
2021/04/18 01:12:41;;;;;;;3.13;1.80;;;;;;;22.14;38.67;94502.69;4989018;28;20102;-70
2021/04/18 01:15:08;;;;;;;3.55;2.15;;;;;;;22.13;38.66;94484.91;4989025;28;20272;-70
2021/04/18 01:17:33;;;;;;;2.35;1.70;;;;;;;21.76;38.61;94423.59;4989041;28;20049;-70
2021/04/18 01:19:59;;;;;;;2.95;2.00;;;;;;;22.12;38.70;94483.44;4988692;28;20113;-70
2021/04/18 01:22:24;;;;;;;2.70;1.90;;;;;;;22.11;38.84;94479.25;4988901;28;20026;-70
2021/04/18 01:24:50;;;;;;;2.47;1.70;;;;;;;22.09;38.84;94484.47;4971218;28;20022;-70
2021/04/18 01:27:17;;;;;;;2.85;2.05;;;;;;;22.08;38.78;94474.13;4988871;28;20037;-70
2021/04/18 01:29:43;;;;;;;2.75;1.88;;;;;;;22.09;38.81;94484.47;4988486;28;20015;-70
2021/04/18 01:32:08;;;;;;;2.80;1.90;;;;;;;22.07;38.77;94476.09;4989033;28;20121;-70
2021/04/18 01:34:39;;;;;;;2.55;1.85;;;;;;;22.08;38.88;94488.44;4987615;28;20034;-70
2021/04/18 01:37:04;;;;;;;2.85;1.88;;;;;;;22.07;38.50;94486.97;4970512;28;20026;-70
2021/04/18 01:39:30;;;;;;;2.92;1.90;;;;;;;22.05;39.02;94484.03;4988659;28;20527;-70
2021/04/18 01:41:55;;;;;;;3.00;1.90;;;;;;;22.05;38.78;94475.88;4988875;28;20041;-70
2021/04/18 01:44:21;;;;;;;2.60;2.10;;;;;;;22.06;38.89;94469.19;5025843;28;20037;-70
2021/04/18 01:46:46;;;;;;;2.67;1.90;;;;;;;22.04;38.92;94466.22;5027641;28;20490;-70
2021/04/18 01:49:12;;;;;;;2.30;1.70;;;;;;;22.05;38.81;94473.16;5027863;28;20029;-70
2021/04/18 01:51:38;;;;;;;2.40;1.77;;;;;;;22.03;39.01;94481.09;5028182;28;20049;-70
2021/04/18 01:54:03;;;;;;;2.55;2.00;;;;;;;22.02;38.74;94482.34;5027970;28;20029;-70
2021/04/18 01:56:29;;;;;;;2.33;1.88;;;;;;;22.00;38.99;94482.13;5027264;28;20128;-71
2021/04/18 01:58:54;;;;;;;3.22;2.00;;;;;;;22.02;38.67;94485.06;5010397;28;20032;-70
2021/04/18 02:01:20;;;;;;;2.97;1.98;;;;;;;21.99;38.89;94480.63;5027858;28;20040;-70
2021/04/18 02:03:46;;;;;;;2.50;1.90;;;;;;;21.94;38.96;94473.28;5027636;28;20115;-70
2021/04/18 02:06:11;;;;;;;2.72;1.98;;;;;;;22.00;38.92;94493.00;5027429;28;20056;-70
2021/04/18 02:08:37;;;;;;;2.63;2.10;;;;;;;21.96;38.83;94487.09;5028032;28;20029;-70
2021/04/18 02:11:02;;;;;;;2.83;2.17;;;;;;;21.97;39.03;94482.38;5027785;28;20548;-70
2021/04/18 02:13:30;;;;;;;2.72;1.85;;;;;;;21.97;39.03;94485.84;5027802;28;20077;-70
2021/04/18 02:15:55;;;;;;;2.63;1.80;;;;;;;21.98;38.86;94473.72;5027035;28;20076;-70
2021/04/18 02:18:21;;;;;;;2.22;1.73;;;;;;;21.96;38.92;94476.22;5027906;28;20030;-70
2021/04/18 02:20:46;;;;;;;2.55;1.70;;;;;;;21.95;39.05;94472.03;5009810;28;20026;-70
2021/04/18 02:23:12;;;;;;;2.85;2.15;;;;;;;21.92;38.96;94460.72;5027424;28;21090;-71
2021/04/18 02:25:37;;;;;;;3.10;2.15;;;;;;;21.93;38.99;94466.38;5027475;28;20461;-70
2021/04/18 02:28:03;;;;;;;2.35;1.88;;;;;;;21.94;38.90;94483.41;5027578;28;20483;-70
2021/04/18 02:30:29;;;;;;;2.50;1.88;;;;;;;21.91;39.05;94472.84;5027547;28;20087;-70
2021/04/18 02:32:54;;;;;;;2.95;2.08;;;;;;;21.74;39.00;94436.97;5027549;28;20072;-71
2021/04/18 02:35:19;;;;;;;3.40;2.30;;;;;;;21.92;38.95;94454.03;5026968;28;20033;-70
2021/04/18 02:37:45;;;;;;;2.67;1.90;;;;;;;21.92;38.99;94454.03;5027369;28;20032;-70
2021/04/18 02:40:11;;;;;;;2.40;2.13;;;;;;;21.92;39.21;94458.72;5027326;28;20041;-70
2021/04/18 02:42:38;;;;;;;3.58;2.33;;;;;;;21.78;38.97;94442.84;5013187;28;20037;-70
2021/04/18 02:45:04;;;;;;;2.72;2.00;;;;;;;21.90;38.93;94465.91;5013377;28;20068;-70
2021/04/18 02:47:30;;;;;;;2.85;1.92;;;;;;;21.69;39.14;94440.50;5030825;28;20434;-70
2021/04/18 02:49:55;;;;;;;2.90;2.20;;;;;;;21.90;39.24;94457.75;5007912;28;20044;-70
2021/04/18 02:52:21;;;;;;;2.30;1.80;;;;;;;21.84;39.07;94446.22;5011235;28;20021;-70
2021/04/18 02:54:46;;;;;;;3.25;2.33;;;;;;;21.88;38.86;94457.56;4992741;28;20499;-70
2021/04/18 02:57:11;;;;;;;2.75;2.17;;;;;;;21.88;39.08;94460.28;4991093;28;20057;-70
2021/04/18 02:59:37;;;;;;;2.92;2.00;;;;;;;21.88;38.79;94471.16;4996751;28;20084;-71
2021/04/18 03:02:03;;;;;;;2.53;1.90;;;;;;;21.86;39.09;94481.81;5010717;28;20033;-71
2021/04/18 03:04:28;;;;;;;3.33;2.30;;;;;;;21.83;39.38;94463.78;5010731;28;20140;-69
2021/04/18 03:06:54;;;;;;;2.60;2.10;;;;;;;21.62;39.33;94441.06;5024073;28;20041;-70
2021/04/18 03:09:19;;;;;;;3.30;2.10;;;;;;;21.67;39.14;94437.53;5013135;28;20094;-71
2021/04/18 03:11:44;;;;;;;2.95;2.15;;;;;;;21.66;39.14;94446.94;5030292;28;20093;-70
2021/04/18 03:14:10;;;;;;;3.70;2.30;;;;;;;21.83;39.13;94480.84;5030660;28;20037;-70
2021/04/18 03:16:35;;;;;;;3.00;2.08;;;;;;;21.80;39.15;94478.41;5030317;28;20054;-70
2021/04/18 03:19:01;;;;;;;3.17;2.30;;;;;;;21.83;39.03;94482.81;5030617;28;20413;-70
2021/04/18 03:21:27;;;;;;;3.20;2.65;;;;;;;21.77;39.26;94468.56;5012673;28;20091;-70
2021/04/18 03:23:52;;;;;;;2.88;2.20;;;;;;;21.81;39.16;94490.72;5030143;28;20037;-71
2021/04/18 03:26:17;;;;;;;2.83;2.00;;;;;;;21.74;39.06;94480.44;5030205;28;20082;-70
2021/04/18 03:28:43;;;;;;;2.80;2.10;;;;;;;21.81;39.05;94496.16;5029914;28;20476;-71
2021/04/18 03:31:08;;;;;;;3.67;2.20;;;;;;;21.81;39.10;94505.06;5029860;28;20036;-70
2021/04/18 03:33:34;;;;;;;3.72;2.50;;;;;;;21.80;39.13;94508.31;5029978;28;20487;-70
2021/04/18 03:35:59;;;;;;;3.45;2.42;;;;;;;21.72;39.11;94500.00;5029943;28;20037;-70
2021/04/18 03:38:25;;;;;;;3.10;2.38;;;;;;;21.78;39.01;94491.75;5021423;28;20036;-70
2021/04/18 03:40:50;;;;;;;4.38;2.42;;;;;;;21.77;39.25;94506.59;5000376;28;20038;-71
2021/04/18 03:43:16;;;;;;;3.13;2.30;;;;;;;21.77;39.14;94495.75;4990416;28;20018;-71
2021/04/18 03:45:41;;;;;;;2.75;2.25;;;;;;;21.73;39.46;94478.97;4989690;28;20393;-70
2021/04/18 03:48:07;;;;;;;4.57;2.40;;;;;;;21.76;39.22;94489.53;4972860;28;20507;-71
2021/04/18 03:50:33;;;;;;;3.65;2.50;;;;;;;21.71;39.09;94492.34;4990513;28;20034;-70
2021/04/18 03:52:58;;;;;;;4.20;2.83;;;;;;;21.73;39.35;94489.84;4989721;28;20065;-70
2021/04/18 03:55:24;;;;;;;3.17;2.50;;;;;;;21.76;39.29;94499.69;4990387;28;20545;-71
2021/04/18 03:57:50;;;;;;;3.35;2.40;;;;;;;21.72;39.29;94491.06;4990085;28;20754;-70
2021/04/18 04:00:16;;;;;;;2.88;2.30;;;;;;;21.74;39.17;94491.31;5024592;28;20037;-70
2021/04/18 04:02:41;;;;;;;3.97;2.55;;;;;;;21.74;39.29;94486.63;5029268;28;20163;-70
2021/04/18 04:05:08;;;;;;;3.45;2.40;;;;;;;21.73;39.18;94496.00;5028934;28;20510;-70
2021/04/18 04:07:33;;;;;;;3.20;2.67;;;;;;;21.73;39.21;94503.44;5029327;28;20033;-70
2021/04/18 04:09:58;;;;;;;3.38;2.20;;;;;;;21.73;39.18;94506.16;5029582;28;20383;-70
2021/04/18 04:12:25;;;;;;;3.85;2.47;;;;;;;21.68;39.24;94504.22;5029233;28;20478;-70
2021/04/18 04:14:54;;;;;;;3.33;2.67;;;;;;;21.41;39.16;94469.91;5004594;28;20507;-70
2021/04/18 04:17:19;;;;;;;3.65;2.53;;;;;;;21.74;39.19;94513.06;4972035;28;20060;-70
2021/04/18 04:19:45;;;;;;;4.18;3.05;;;;;;;21.68;39.28;94504.22;4996703;28;20503;-71
2021/04/18 04:22:11;;;;;;;3.92;2.63;;;;;;;21.71;39.32;94508.66;4991820;28;20041;-70
2021/04/18 04:24:36;;;;;;;4.20;2.80;;;;;;;21.72;39.24;94504.66;4988773;28;20121;-70
2021/04/18 04:27:02;;;;;;;3.83;2.78;;;;;;;21.65;39.21;94516.13;5009011;28;20022;-70
2021/04/18 04:29:28;;;;;;;4.70;2.95;;;;;;;21.66;39.36;94517.59;5007996;28;20029;-71
2021/04/18 04:31:53;;;;;;;2.95;2.63;;;;;;;21.78;39.31;94518.94;5009304;28;20030;-70
2021/04/18 04:34:18;;;;;;;5.15;2.60;;;;;;;21.77;39.22;94512.03;5005225;28;20106;-71
2021/04/18 04:36:44;;;;;;;4.60;2.83;;;;;;;21.75;39.77;94519.94;5007543;28;20103;-73
2021/04/18 04:39:09;;;;;;;4.65;2.75;;;;;;;21.89;39.40;94513.41;5007325;28;20557;-71
2021/04/18 04:41:35;;;;;;;3.35;2.40;;;;;;;21.92;39.48;94519.25;5006758;28;20041;-74
2021/04/18 04:44:00;;;;;;;9.57;3.80;;;;;;;22.01;39.45;94527.06;5007063;28;20056;-70
2021/04/18 04:46:26;;;;;;;3.22;2.55;;;;;;;22.04;39.34;94520.59;5003926;28;20076;-71
2021/04/18 04:48:51;;;;;;;3.63;2.53;;;;;;;22.12;39.23;94537.84;4989792;28;20033;-71
2021/04/18 04:51:17;;;;;;;3.60;2.45;;;;;;;22.18;39.29;94527.63;5006775;28;20033;-69
2021/04/18 04:53:42;;;;;;;3.70;2.67;;;;;;;22.27;39.07;94537.44;5007703;28;20526;-70
2021/04/18 04:56:07;;;;;;;3.60;2.85;;;;;;;22.31;39.08;94527.72;4993436;28;20041;-70
2021/04/18 04:58:33;;;;;;;3.60;2.20;;;;;;;22.44;38.71;94530.53;5004902;28;20030;-71
2021/04/18 05:00:59;;;;;;;4.28;2.45;;;;;;;22.49;38.61;94516.84;5016605;28;20041;-72
2021/04/18 05:03:27;;;;;;;3.38;2.10;;;;;;;22.61;38.25;94539.22;5011226;28;20028;-72
2021/04/18 05:05:53;;;;;;;3.28;2.40;;;;;;;22.70;38.32;94525.97;5006585;28;20171;-72
2021/04/18 05:08:18;;;;;;;3.30;2.60;;;;;;;22.76;38.04;94523.91;5007495;28;20517;-70
2021/04/18 05:10:44;;;;;;;3.58;2.33;;;;;;;22.68;37.76;94493.09;4998441;28;20488;-71
2021/04/18 05:13:09;;;;;;;3.28;2.50;;;;;;;23.03;37.83;94531.72;4985123;28;20060;-72
2021/04/18 05:15:34;;;;;;;3.28;2.30;;;;;;;23.15;37.23;94533.00;5003237;28;20029;-72
2021/04/18 05:18:00;;;;;;;4.47;2.70;;;;;;;23.00;37.39;94478.28;5006163;28;20488;-76
2021/04/18 05:20:25;;;;;;;3.53;2.50;;;;;;;23.30;37.03;94503.28;4985504;28;20025;-73
2021/04/18 05:22:51;;;;;;;3.05;2.25;;;;;;;23.44;37.13;94515.69;4995689;28;20042;-72
2021/04/18 05:25:16;;;;;;;3.42;2.45;;;;;;;23.55;36.99;94499.13;5002830;28;20034;-72
2021/04/18 05:27:42;;;;;;;3.83;2.50;;;;;;;23.68;36.50;94501.91;5004357;28;20400;-72
2021/04/18 05:30:08;;;;;;;3.95;2.72;;;;;;;23.78;36.62;94511.88;5000866;28;20022;-68
2021/04/18 05:32:34;;;;;;;3.47;2.60;;;;;;;23.81;36.38;94510.09;4986334;28;20022;-68
2021/04/18 05:35:00;;;;;;;4.35;2.28;;;;;;;23.92;36.27;94527.72;5003581;28;20037;-70
2021/04/18 05:37:25;;;;;;;4.13;2.60;;;;;;;23.88;36.37;94500.03;5001474;28;20025;-70
2021/04/18 05:39:50;;;;;;;3.88;2.67;;;;;;;24.11;35.83;94511.97;4979331;28;20041;-71
2021/04/18 05:42:16;;;;;;;3.40;2.67;;;;;;;24.15;35.83;94501.47;5013267;28;20021;-71
2021/04/18 05:44:41;;;;;;;3.88;2.70;;;;;;;24.28;36.00;94509.66;5005602;28;20038;-71
2021/04/18 05:47:07;;;;;;;3.65;2.40;;;;;;;24.35;35.67;94514.50;5006734;28;20026;-71
2021/04/18 05:49:33;;;;;;;3.88;2.65;;;;;;;24.38;35.66;94518.91;5004941;28;20040;-69
2021/04/18 05:51:59;;;;;;;3.03;2.35;;;;;;;24.44;35.27;94522.25;5013390;28;20181;-69
2021/04/18 05:54:24;;;;;;;3.55;2.58;;;;;;;24.47;35.55;94515.75;5007015;28;20029;-71
2021/04/18 05:56:50;;;;;;;4.07;2.95;;;;;;;24.43;35.49;94526.97;5009789;28;20036;-71
2021/04/18 05:59:15;;;;;;;3.67;2.60;;;;;;;24.63;35.37;94520.81;5008854;28;20021;-71
2021/04/18 06:01:41;;;;;;;4.25;2.83;;;;;;;24.66;34.79;94519.03;5013126;28;20578;-70
2021/04/18 06:04:06;;;;;;;3.78;2.63;;;;;;;24.76;34.92;94522.81;4993054;28;20050;-71
2021/04/18 06:06:31;;;;;;;3.67;2.50;;;;;;;24.77;35.03;94526.97;4989699;28;20527;-72
2021/04/18 06:08:57;;;;;;;4.32;3.10;;;;;;;24.83;34.85;94526.34;5000009;28;20037;-71
2021/04/18 06:11:22;;;;;;;3.80;2.58;;;;;;;24.92;34.69;94517.69;5010531;28;20418;-73
2021/04/18 06:13:48;;;;;;;3.92;2.60;;;;;;;24.91;34.74;94521.69;5007311;28;20021;-74
2021/04/18 06:16:14;;;;;;;3.75;2.75;;;;;;;24.87;34.74;94510.38;4990921;28;20509;-74
2021/04/18 06:18:39;;;;;;;3.58;2.67;;;;;;;24.99;34.10;94516.31;5009866;28;20046;-71
2021/04/18 06:21:05;;;;;;;4.07;2.53;;;;;;;25.07;34.43;94522.63;5024456;28;20066;-75
2021/04/18 06:23:31;;;;;;;4.10;2.92;;;;;;;25.11;34.26;94515.56;5015117;28;20037;-73
2021/04/18 06:25:56;;;;;;;3.40;2.60;;;;;;;25.13;33.97;94526.69;5017236;28;20028;-72
2021/04/18 06:28:21;;;;;;;4.15;2.85;;;;;;;25.18;33.90;94517.59;5016293;28;20022;-71
2021/04/18 06:30:47;;;;;;;3.83;3.10;;;;;;;25.36;33.84;94533.81;5021584;28;20057;-75
2021/04/18 06:33:13;;;;;;;3.83;2.90;;;;;;;25.31;33.86;94542.16;5045208;28;20030;-75
2021/04/18 06:35:38;;;;;;;4.28;3.28;;;;;;;25.36;33.92;94533.81;5041654;28;20040;-74
2021/04/18 06:38:03;;;;;;;3.42;2.65;;;;;;;25.34;33.82;94530.16;5038457;28;20029;-76
2021/04/18 06:40:29;;;;;;;4.03;2.70;;;;;;;25.32;33.90;94521.75;5043255;28;20029;-74
2021/04/18 06:42:55;;;;;;;4.00;2.80;;;;;;;25.37;33.79;94540.03;5040217;28;20102;-74
2021/04/18 06:45:20;;;;;;;4.60;2.90;;;;;;;25.39;33.68;94542.94;5030554;28;20032;-75
2021/04/18 06:47:46;;;;;;;4.28;2.95;;;;;;;25.38;33.71;94538.72;5040392;28;20075;-74
2021/04/18 06:50:11;;;;;;;3.70;2.70;;;;;;;25.37;33.57;94545.50;5019087;28;20032;-71
2021/04/18 06:52:37;;;;;;;4.10;3.10;;;;;;;25.45;33.77;94535.34;5009754;28;20466;-70
2021/04/18 06:55:04;;;;;;;3.30;2.60;;;;;;;25.55;33.40;94544.56;5009262;28;20018;-74
2021/04/18 06:57:29;;;;;;;3.72;2.78;;;;;;;25.33;33.22;94512.28;5009029;28;20030;-75
2021/04/18 06:59:55;;;;;;;4.47;2.95;;;;;;;25.54;33.39;94548.53;5002182;28;20036;-77
2021/04/18 07:02:24;;;;;;;4.35;2.97;;;;;;;25.56;33.57;94540.53;4989936;28;20521;-77
2021/04/18 07:04:58;;;;;;;3.63;2.80;;;;;;;25.59;33.32;94550.41;5011073;28;20045;-72
2021/04/18 07:07:27;;;;;;;3.95;2.47;;;;;;;25.50;33.67;94531.72;5006899;28;20026;-71
2021/04/18 07:09:52;;;;;;;4.97;2.63;;;;;;;25.67;33.52;94548.50;5010136;28;20469;-72
2021/04/18 07:12:24;;;;;;;4.15;2.90;;;;;;;25.64;33.57;94542.09;4983059;28;20037;-71
2021/04/18 07:14:50;;;;;;;3.88;2.85;;;;;;;25.73;33.36;94549.09;5007487;28;20056;-77
2021/04/18 07:17:15;;;;;;;3.95;2.67;;;;;;;25.87;33.19;94551.94;4996261;28;20034;-70
2021/04/18 07:19:46;;;;;;;3.97;2.75;;;;;;;25.92;33.14;94551.06;5013350;28;20053;-70
2021/04/18 07:22:11;;;;;;;3.88;2.83;;;;;;;26.02;33.44;94551.31;5002112;28;20030;-70
2021/04/18 07:24:54;;;;;;;3.60;2.75;;;;;;;25.95;33.37;94544.53;4992614;28;20022;-69
2021/04/18 07:27:20;;;;;;;6.53;2.90;;;;;;;25.91;33.54;94537.91;5004443;28;20037;-69
2021/04/18 07:29:57;;;;;;;4.57;2.70;;;;;;;25.89;33.55;94552.13;4991044;28;20030;-72
2021/04/18 07:32:24;;;;;;;4.13;2.80;;;;;;;25.73;33.96;94543.63;5006268;28;20022;-73
2021/04/18 07:34:50;;;;;;;3.55;2.55;;;;;;;25.62;33.99;94552.06;5018784;28;20124;-73
2021/04/18 07:37:17;;;;;;;5.93;2.72;;;;;;;25.59;33.75;94553.13;4992870;28;20156;-71
2021/04/18 07:39:52;;;;;;;12.38;2.95;;;;;;;25.51;33.76;94547.59;5019200;28;20034;-72
2021/04/18 07:42:36;;;;;;;4.20;2.85;;;;;;;25.52;33.72;94551.09;5014258;28;20026;-72
2021/04/18 07:45:15;;;;;;;5.43;2.65;;;;;;;25.51;34.02;94555.09;4989950;28;20026;-74
2021/04/18 07:47:42;;;;;;;3.90;3.00;;;;;;;25.54;33.74;94560.22;4993685;28;20037;-71
2021/04/18 07:50:13;;;;;;;4.07;2.65;;;;;;;25.62;33.74;94565.75;4989919;28;20068;-72
2021/04/18 07:52:40;;;;;;;3.40;2.70;;;;;;;25.61;33.40;94569.75;4989616;28;20022;-71
2021/04/18 07:55:06;;;;;;;5.18;2.75;;;;;;;25.61;33.46;94561.56;4997959;28;20040;-72
2021/04/18 07:57:35;;;;;;;4.72;2.90;;;;;;;25.49;33.52;94546.69;5002898;28;20026;-72
2021/04/18 08:00:00;;;;;;;4.13;2.72;;;;;;;25.68;33.15;94564.38;4988225;28;20533;-73
2021/04/18 08:02:26;;;;;;;4.43;3.00;;;;;;;25.76;33.41;94558.97;4994972;28;20032;-73
2021/04/18 08:04:54;;;;;;;4.43;2.78;;;;;;;25.73;33.44;94554.56;4997702;28;20061;-72
2021/04/18 08:07:20;;;;;;;6.18;2.80;;;;;;;25.81;33.25;94584.19;4997576;28;20103;-77
2021/04/18 08:09:45;;;;;;;5.00;2.50;;;;;;;25.79;33.28;94579.78;5004013;28;20026;-75
2021/04/18 08:12:12;;;;;;;4.28;3.28;;;;;;;25.71;33.18;94562.56;5006655;28;20126;-80
2021/04/18 08:14:42;;;;;;;4.32;2.90;;;;;;;25.87;33.38;94571.09;5006691;28;20103;-76
2021/04/18 08:17:09;;;;;;;3.60;2.92;;;;;;;25.83;33.40;94576.16;5007880;28;20041;-77
2021/04/18 08:19:35;;;;;;;4.97;3.20;;;;;;;25.75;33.50;94562.97;5009478;28;20038;-76
2021/04/18 08:22:01;;;;;;;4.22;3.10;;;;;;;25.84;33.24;94572.19;4991266;28;20096;-70
2021/04/18 08:24:32;;;;;;;7.15;3.28;;;;;;;25.99;33.42;94572.28;5014971;28;20507;-70
2021/04/18 08:27:01;;;;;;;5.15;2.72;;;;;;;26.06;33.30;94582.53;4986732;28;20042;-69
2021/04/18 08:29:26;;;;;;;4.63;2.95;;;;;;;26.02;33.87;94582.16;5009085;28;20026;-72
2021/04/18 08:31:59;;;;;;;4.30;3.03;;;;;;;26.02;33.17;94582.16;5006827;28;20025;-73
2021/04/18 08:34:32;;;;;;;4.55;3.05;;;;;;;25.95;33.47;94582.81;5016281;28;20026;-72
2021/04/18 08:36:59;;;;;;;5.03;3.20;;;;;;;25.97;33.17;94580.28;5008847;28;20044;-73
2021/04/18 08:39:25;;;;;;;4.47;3.03;;;;;;;26.01;33.16;94580.69;5013456;28;20022;-75
2021/04/18 08:41:55;;;;;;;4.55;2.92;;;;;;;25.94;33.39;94562.19;5003972;28;20050;-72
2021/04/18 08:44:34;;;;;;;6.80;3.38;;;;;;;26.02;33.14;94581.41;4966450;28;20030;-72
2021/04/18 08:47:00;;;;;;;5.45;3.22;;;;;;;26.00;33.18;94579.22;4986199;28;20030;-73
2021/04/18 08:49:38;;;;;;;4.65;3.25;;;;;;;26.05;33.23;94583.81;4990758;28;20034;-72
2021/04/18 08:52:25;;;;;;;5.43;3.00;;;;;;;25.99;33.36;94577.00;5000556;28;20503;-72
2021/04/18 08:54:52;;;;;;;4.43;3.22;;;;;;;26.00;33.24;94584.69;4997456;28;20040;-73
2021/04/18 08:57:19;;;;;;;5.90;3.10;;;;;;;26.02;32.98;94593.09;4992304;28;20030;-72
2021/04/18 08:59:54;;;;;;;5.88;3.30;;;;;;;26.00;33.14;94601.09;4989970;28;20064;-72
2021/04/18 09:02:20;;;;;;;4.32;3.17;;;;;;;26.04;33.05;94601.50;4994680;28;20065;-72
2021/04/18 09:04:47;;;;;;;5.03;3.17;;;;;;;26.06;33.02;94604.44;5005584;28;20049;-72
2021/04/18 09:07:15;;;;;;;8.35;3.63;;;;;;;26.06;33.10;94604.44;5017658;28;20036;-72
2021/04/18 09:09:40;;;;;;;12.60;4.40;;;;;;;26.04;32.96;94601.50;5003258;28;20026;-73
2021/04/18 09:12:06;;;;;;;7.15;3.42;;;;;;;26.08;32.88;94596.41;4983675;28;20419;-73
2021/04/18 09:14:41;;;;;;;6.97;3.58;;;;;;;26.07;33.08;94592.22;5017447;28;20033;-73
2021/04/18 09:17:33;;;;;;;6.78;3.78;;;;;;;26.06;33.03;94598.94;5009149;28;20025;-73
2021/04/18 09:19:59;;;;;;;6.57;3.35;;;;;;;26.08;32.73;94596.41;5024832;28;20045;-72
2021/04/18 09:22:28;;;;;;;5.53;3.47;;;;;;;26.09;33.00;94603.34;5017624;28;20486;-71
2021/04/18 09:24:55;;;;;;;10.07;4.20;;;;;;;25.92;32.81;94577.69;5023246;28;20056;-72
2021/04/18 09:27:25;;;;;;;7.38;3.45;;;;;;;26.13;32.68;94581.84;5007691;28;20018;-72
2021/04/18 09:29:52;;;;;;;6.25;3.78;;;;;;;26.13;32.68;94579.13;5024689;28;20418;-73
2021/04/18 09:32:30;;;;;;;5.03;3.50;;;;;;;26.11;32.67;94589.84;5009171;28;20554;-71
2021/04/18 09:34:56;;;;;;;9.57;4.65;;;;;;;26.07;32.78;94588.72;5022099;28;20025;-72
2021/04/18 09:37:29;;;;;;;6.95;4.40;;;;;;;26.08;32.42;94574.50;5009530;28;20072;-74
2021/04/18 09:39:59;;;;;;;9.13;4.30;;;;;;;25.92;32.03;94555.81;5014380;28;20409;-72
2021/04/18 09:42:24;;;;;;;;;;;;;;;26.05;32.30;94580.34;4980331;28;20030;-72
2021/04/18 09:44:53;;;;;;;9.50;5.55;;;;;;;25.80;32.37;94530.75;5022792;28;20431;-74
2021/04/18 09:47:24;;;;;;;9.35;5.65;;;;;;;26.09;32.19;94575.97;4983559;28;20101;-72
2021/04/18 09:49:52;;;;;;;7.95;4.80;;;;;;;26.12;32.15;94574.19;5023268;28;20105;-72
2021/04/18 09:52:43;;;;;;;8.35;5.45;;;;;;;26.12;32.23;94596.81;5015624;28;20058;-73
2021/04/18 09:55:25;;;;;;;9.30;5.05;;;;;;;26.16;32.55;94590.97;5018064;28;20430;-73
2021/04/18 09:57:54;;;;;;;8.60;5.57;;;;;;;26.23;32.20;94588.28;4992428;28;20117;-74
2021/04/18 10:00:26;;;;;;;8.10;5.57;;;;;;;26.24;32.46;94592.50;5007512;28;20053;-73
2021/04/18 10:03:08;;;;;;;8.57;5.07;;;;;;;26.23;32.31;94596.50;5009338;28;20141;-73
2021/04/18 10:05:35;;;;;;;7.43;5.03;;;;;;;26.25;32.37;94593.97;5010822;28;20056;-72
2021/04/18 10:08:14;;;;;;;12.35;7.93;;;;;;;26.30;32.60;94599.31;5016451;28;20049;-74
2021/04/18 10:10:39;;;;;;;10.07;6.65;;;;;;;26.19;32.74;94598.88;5018286;28;20124;-74
2021/04/18 10:13:05;;;;;;;10.20;6.93;;;;;;;26.21;32.73;94599.06;4991434;28;20490;-72
2021/04/18 10:15:30;;;;;;;10.50;7.43;;;;;;;26.14;32.82;94605.22;4992252;28;20021;-72
2021/04/18 10:17:55;;;;;;;9.85;7.15;;;;;;;26.13;32.77;94598.28;4989504;28;20052;-73
2021/04/18 10:20:22;;;;;;;11.35;7.30;;;;;;;26.20;32.81;94600.31;4987002;28;20018;-72
2021/04/18 10:23:01;;;;;;;9.65;7.30;;;;;;;26.26;33.37;94589.97;5006058;28;20029;-73
2021/04/18 10:25:27;;;;;;;10.52;6.95;;;;;;;26.34;33.43;94596.97;5005118;28;20041;-71
2021/04/18 10:27:52;;;;;;;10.30;7.50;;;;;;;26.26;33.80;94600.19;5009767;28;20025;-72
2021/04/18 10:30:18;;;;;;;9.02;7.18;;;;;;;26.04;33.86;94579.59;5026176;28;20044;-71
2021/04/18 10:32:43;;;;;;;9.52;7.13;;;;;;;26.30;34.13;94587.66;4996352;28;20495;-72
2021/04/18 10:35:09;;;;;;;9.88;6.88;;;;;;;26.25;33.88;94602.19;5010711;28;20030;-72
2021/04/18 10:37:35;;;;;;;11.90;7.95;;;;;;;26.22;33.79;94600.53;5020617;28;20022;-71
2021/04/18 10:40:01;;;;;;;11.68;7.90;;;;;;;26.22;33.66;94597.78;5006241;28;20032;-72
2021/04/18 10:42:26;;;;;;;9.38;6.80;;;;;;;26.21;33.82;94604.53;5022565;28;20032;-71
2021/04/18 10:44:52;;;;;;;8.23;6.97;;;;;;;26.07;33.77;94589.47;5021166;28;20022;-71
2021/04/18 10:47:18;;;;;;;11.50;7.65;;;;;;;26.28;33.62;94614.84;5012604;28;20428;-73
2021/04/18 10:49:47;;;;;;;9.98;6.80;;;;;;;26.21;34.00;94620.97;4997221;28;20033;-72
2021/04/18 10:52:13;;;;;;;10.80;6.72;;;;;;;26.30;33.75;94620.50;5008444;28;20467;-74
2021/04/18 10:54:38;;;;;;;10.18;6.65;;;;;;;26.19;33.75;94607.09;5017566;28;20040;-71
2021/04/18 10:57:04;;;;;;;10.30;6.50;;;;;;;26.18;33.95;94616.56;5017892;28;20037;-71
2021/04/18 10:59:30;;;;;;;10.60;7.07;;;;;;;26.00;33.89;94612.03;5017371;28;20116;-72
2021/04/18 11:01:55;;;;;;;10.55;6.78;;;;;;;26.04;34.02;94612.44;4972025;28;20041;-73
2021/04/18 11:04:21;;;;;;;10.68;6.65;;;;;;;26.05;33.71;94613.16;5000857;28;20053;-73
2021/04/18 11:06:46;;;;;;;9.43;6.63;;;;;;;25.83;33.76;94592.59;5019741;28;20034;-72
2021/04/18 11:09:12;;;;;;;9.73;6.45;;;;;;;25.95;33.96;94621.13;4994098;28;20526;-73
2021/04/18 11:11:37;;;;;;;9.15;6.78;;;;;;;25.89;34.11;94612.34;5010470;28;20410;-74
2021/04/18 11:14:04;;;;;;;9.52;6.68;;;;;;;25.91;33.90;94620.72;5010114;28;20022;-72
2021/04/18 11:16:29;;;;;;;9.93;6.93;;;;;;;25.93;33.91;94618.22;5008194;28;20748;-72
2021/04/18 11:18:55;;;;;;;9.10;6.63;;;;;;;25.86;34.14;94618.16;5012244;28;20033;-75
2021/04/18 11:21:22;;;;;;;9.55;6.47;;;;;;;25.85;34.07;94628.34;5009755;28;20093;-74
2021/04/18 11:23:47;;;;;;;10.07;6.47;;;;;;;25.82;34.05;94623.94;4996576;28;20065;-74
2021/04/18 11:26:12;;;;;;;9.02;6.63;;;;;;;25.79;34.15;94625.00;5012829;28;20034;-75
2021/04/18 11:28:38;;;;;;;9.32;6.40;;;;;;;25.84;33.94;94621.41;5011621;28;20419;-71
2021/04/18 11:31:03;;;;;;;7.45;6.13;;;;;;;25.85;34.08;94617.41;5007313;28;20029;-72
2021/04/18 11:33:29;;;;;;;9.90;6.93;;;;;;;25.85;33.90;94622.88;5010278;28;20756;-72